sensor_id;sensor_type;location;lat;lon;timestamp;P1;durP1;ratioP1;P2;durP2;ratioP2
5955;SDS011;3004;48.080;11.600;2022-10-30T00:00:53;68.70;;;5.97;;
5955;SDS011;3004;48.080;11.600;2022-10-30T00:03:20;68.97;;;6.00;;
5955;SDS011;3004;48.080;11.600;2022-10-30T00:05:47;69.23;;;6.27;;
5955;SDS011;3004;48.080;11.600;2022-10-30T00:08:16;69.27;;;6.10;;
5955;SDS011;3004;48.080;11.600;2022-10-30T00:10:45;69.57;;;6.40;;
5955;SDS011;3004;48.080;11.600;2022-10-30T00:13:16;69.67;;;6.90;;
5955;SDS011;3004;48.080;11.600;2022-10-30T00:15:47;70.30;;;6.90;;
5955;SDS011;3004;48.080;11.600;2022-10-30T00:18:17;69.23;;;6.60;;
5955;SDS011;3004;48.080;11.600;2022-10-30T00:20:44;68.90;;;6.37;;
5955;SDS011;3004;48.080;11.600;2022-10-30T00:23:12;70.87;;;7.53;;
5955;SDS011;3004;48.080;11.600;2022-10-30T00:25:39;68.87;;;6.30;;
5955;SDS011;3004;48.080;11.600;2022-10-30T00:28:08;69.77;;;6.70;;
5955;SDS011;3004;48.080;11.600;2022-10-30T00:30:37;68.80;;;6.30;;
5955;SDS011;3004;48.080;11.600;2022-10-30T00:33:05;68.97;;;6.17;;
5955;SDS011;3004;48.080;11.600;2022-10-30T00:35:32;69.43;;;6.33;;
5955;SDS011;3004;48.080;11.600;2022-10-30T00:37:59;69.13;;;6.43;;
5955;SDS011;3004;48.080;11.600;2022-10-30T00:40:26;68.70;;;6.33;;
5955;SDS011;3004;48.080;11.600;2022-10-30T00:42:53;69.30;;;6.53;;
5955;SDS011;3004;48.080;11.600;2022-10-30T00:45:21;69.97;;;7.00;;
5955;SDS011;3004;48.080;11.600;2022-10-30T00:47:50;69.37;;;6.50;;
5955;SDS011;3004;48.080;11.600;2022-10-30T00:50:20;71.53;;;7.83;;
5955;SDS011;3004;48.080;11.600;2022-10-30T00:52:51;70.20;;;7.83;;
5955;SDS011;3004;48.080;11.600;2022-10-30T00:55:24;70.70;;;7.37;;
5955;SDS011;3004;48.080;11.600;2022-10-30T00:57:55;69.00;;;6.40;;
5955;SDS011;3004;48.080;11.600;2022-10-30T01:00:23;69.07;;;6.50;;
5955;SDS011;3004;48.080;11.600;2022-10-30T01:02:56;68.67;;;6.20;;
5955;SDS011;3004;48.080;11.600;2022-10-30T01:05:23;68.10;;;6.00;;
5955;SDS011;3004;48.080;11.600;2022-10-30T01:07:53;68.43;;;6.00;;
5955;SDS011;3004;48.080;11.600;2022-10-30T01:10:21;68.17;;;5.90;;
5955;SDS011;3004;48.080;11.600;2022-10-30T01:12:48;67.70;;;5.80;;
5955;SDS011;3004;48.080;11.600;2022-10-30T01:15:21;67.80;;;5.83;;
5955;SDS011;3004;48.080;11.600;2022-10-30T01:18:09;67.77;;;5.70;;
5955;SDS011;3004;48.080;11.600;2022-10-30T01:20:59;67.90;;;5.77;;
5955;SDS011;3004;48.080;11.600;2022-10-30T01:23:40;68.07;;;5.80;;
5955;SDS011;3004;48.080;11.600;2022-10-30T01:26:16;67.67;;;5.40;;
5955;SDS011;3004;48.080;11.600;2022-10-30T01:31:48;67.20;;;5.30;;
5955;SDS011;3004;48.080;11.600;2022-10-30T01:34:29;67.47;;;5.30;;
5955;SDS011;3004;48.080;11.600;2022-10-30T01:37:09;67.07;;;5.10;;
5955;SDS011;3004;48.080;11.600;2022-10-30T01:39:41;67.00;;;5.03;;
5955;SDS011;3004;48.080;11.600;2022-10-30T01:42:08;69.33;;;7.10;;
5955;SDS011;3004;48.080;11.600;2022-10-30T01:44:38;66.90;;;4.93;;
5955;SDS011;3004;48.080;11.600;2022-10-30T01:47:12;66.53;;;5.20;;
5955;SDS011;3004;48.080;11.600;2022-10-30T01:49:56;67.03;;;4.93;;
5955;SDS011;3004;48.080;11.600;2022-10-30T01:52:43;66.97;;;5.30;;
5955;SDS011;3004;48.080;11.600;2022-10-30T01:55:17;66.47;;;4.83;;
5955;SDS011;3004;48.080;11.600;2022-10-30T01:57:57;66.60;;;4.73;;
5955;SDS011;3004;48.080;11.600;2022-10-30T02:00:30;66.97;;;4.80;;
5955;SDS011;3004;48.080;11.600;2022-10-30T02:02:57;67.60;;;6.03;;
5955;SDS011;3004;48.080;11.600;2022-10-30T02:05:29;66.60;;;4.80;;
5955;SDS011;3004;48.080;11.600;2022-10-30T02:07:59;67.43;;;5.63;;
5955;SDS011;3004;48.080;11.600;2022-10-30T02:10:28;67.27;;;5.20;;
5955;SDS011;3004;48.080;11.600;2022-10-30T02:12:56;66.80;;;5.10;;
5955;SDS011;3004;48.080;11.600;2022-10-30T02:15:23;66.30;;;4.93;;
5955;SDS011;3004;48.080;11.600;2022-10-30T02:17:50;66.97;;;5.00;;
5955;SDS011;3004;48.080;11.600;2022-10-30T02:20:20;67.10;;;5.10;;
5955;SDS011;3004;48.080;11.600;2022-10-30T02:22:48;67.27;;;5.20;;
5955;SDS011;3004;48.080;11.600;2022-10-30T02:25:15;68.30;;;5.67;;
5955;SDS011;3004;48.080;11.600;2022-10-30T02:27:42;68.50;;;5.73;;
5955;SDS011;3004;48.080;11.600;2022-10-30T02:30:09;67.30;;;5.50;;
5955;SDS011;3004;48.080;11.600;2022-10-30T02:32:37;68.50;;;5.67;;
5955;SDS011;3004;48.080;11.600;2022-10-30T02:35:08;67.90;;;5.60;;
5955;SDS011;3004;48.080;11.600;2022-10-30T02:37:40;67.27;;;5.10;;
5955;SDS011;3004;48.080;11.600;2022-10-30T02:40:08;67.00;;;5.10;;
5955;SDS011;3004;48.080;11.600;2022-10-30T02:42:36;67.33;;;5.20;;
5955;SDS011;3004;48.080;11.600;2022-10-30T02:45:03;70.00;;;5.70;;
5955;SDS011;3004;48.080;11.600;2022-10-30T02:47:31;67.27;;;5.30;;
5955;SDS011;3004;48.080;11.600;2022-10-30T02:49:58;67.67;;;5.50;;
5955;SDS011;3004;48.080;11.600;2022-10-30T02:52:25;67.67;;;5.67;;
5955;SDS011;3004;48.080;11.600;2022-10-30T02:54:53;67.47;;;5.30;;
5955;SDS011;3004;48.080;11.600;2022-10-30T02:57:20;67.13;;;5.30;;
5955;SDS011;3004;48.080;11.600;2022-10-30T02:59:47;67.73;;;5.60;;
5955;SDS011;3004;48.080;11.600;2022-10-30T03:02:18;67.73;;;5.50;;
5955;SDS011;3004;48.080;11.600;2022-10-30T03:04:45;68.03;;;6.17;;
5955;SDS011;3004;48.080;11.600;2022-10-30T03:07:12;67.40;;;5.60;;
5955;SDS011;3004;48.080;11.600;2022-10-30T03:09:41;67.37;;;5.43;;
5955;SDS011;3004;48.080;11.600;2022-10-30T03:12:10;67.63;;;5.50;;
5955;SDS011;3004;48.080;11.600;2022-10-30T03:14:37;67.63;;;5.50;;
5955;SDS011;3004;48.080;11.600;2022-10-30T03:17:04;68.13;;;6.00;;
5955;SDS011;3004;48.080;11.600;2022-10-30T03:19:31;67.63;;;5.50;;
5955;SDS011;3004;48.080;11.600;2022-10-30T03:21:58;68.03;;;5.67;;
5955;SDS011;3004;48.080;11.600;2022-10-30T03:24:25;68.10;;;5.77;;
5955;SDS011;3004;48.080;11.600;2022-10-30T03:26:52;67.80;;;5.70;;
5955;SDS011;3004;48.080;11.600;2022-10-30T03:29:22;67.97;;;5.73;;
5955;SDS011;3004;48.080;11.600;2022-10-30T03:31:49;68.37;;;6.40;;
5955;SDS011;3004;48.080;11.600;2022-10-30T03:34:16;68.53;;;6.37;;
5955;SDS011;3004;48.080;11.600;2022-10-30T03:36:43;68.47;;;6.47;;
5955;SDS011;3004;48.080;11.600;2022-10-30T03:39:14;68.10;;;5.83;;
5955;SDS011;3004;48.080;11.600;2022-10-30T03:41:41;68.30;;;6.10;;
5955;SDS011;3004;48.080;11.600;2022-10-30T03:44:08;68.63;;;6.27;;
5955;SDS011;3004;48.080;11.600;2022-10-30T03:46:37;68.30;;;6.07;;
5955;SDS011;3004;48.080;11.600;2022-10-30T03:49:05;68.60;;;6.20;;
5955;SDS011;3004;48.080;11.600;2022-10-30T03:51:32;68.80;;;6.40;;
5955;SDS011;3004;48.080;11.600;2022-10-30T03:54:02;71.13;;;8.10;;
5955;SDS011;3004;48.080;11.600;2022-10-30T03:56:29;70.10;;;7.70;;
5955;SDS011;3004;48.080;11.600;2022-10-30T03:58:56;69.60;;;6.90;;
5955;SDS011;3004;48.080;11.600;2022-10-30T04:01:23;69.17;;;6.67;;
5955;SDS011;3004;48.080;11.600;2022-10-30T04:03:53;69.07;;;6.63;;
5955;SDS011;3004;48.080;11.600;2022-10-30T04:06:20;69.37;;;6.70;;
5955;SDS011;3004;48.080;11.600;2022-10-30T04:08:47;86.10;;;9.33;;
5955;SDS011;3004;48.080;11.600;2022-10-30T04:11:14;69.53;;;7.47;;
5955;SDS011;3004;48.080;11.600;2022-10-30T04:13:43;71.43;;;8.47;;
5955;SDS011;3004;48.080;11.600;2022-10-30T04:16:11;68.97;;;6.80;;
5955;SDS011;3004;48.080;11.600;2022-10-30T04:18:38;69.03;;;6.70;;
5955;SDS011;3004;48.080;11.600;2022-10-30T04:21:07;69.00;;;6.63;;
5955;SDS011;3004;48.080;11.600;2022-10-30T04:23:34;69.23;;;6.70;;
5955;SDS011;3004;48.080;11.600;2022-10-30T04:26:01;69.63;;;7.23;;
5955;SDS011;3004;48.080;11.600;2022-10-30T04:28:28;68.40;;;6.40;;
5955;SDS011;3004;48.080;11.600;2022-10-30T04:30:55;68.57;;;6.43;;
5955;SDS011;3004;48.080;11.600;2022-10-30T04:33:22;68.87;;;6.70;;
5955;SDS011;3004;48.080;11.600;2022-10-30T04:35:49;70.20;;;7.40;;
5955;SDS011;3004;48.080;11.600;2022-10-30T04:38:21;73.60;;;8.80;;
5955;SDS011;3004;48.080;11.600;2022-10-30T04:40:48;75.10;;;7.63;;
5955;SDS011;3004;48.080;11.600;2022-10-30T04:43:18;71.30;;;8.33;;
5955;SDS011;3004;48.080;11.600;2022-10-30T04:45:45;69.13;;;6.83;;
5955;SDS011;3004;48.080;11.600;2022-10-30T04:48:13;69.43;;;7.70;;
5955;SDS011;3004;48.080;11.600;2022-10-30T04:50:41;69.07;;;6.83;;
5955;SDS011;3004;48.080;11.600;2022-10-30T04:53:15;69.80;;;7.10;;
5955;SDS011;3004;48.080;11.600;2022-10-30T04:55:44;68.90;;;6.80;;
5955;SDS011;3004;48.080;11.600;2022-10-30T04:58:12;69.27;;;7.40;;
5955;SDS011;3004;48.080;11.600;2022-10-30T05:00:39;68.80;;;6.77;;
5955;SDS011;3004;48.080;11.600;2022-10-30T05:03:07;68.43;;;6.77;;
5955;SDS011;3004;48.080;11.600;2022-10-30T05:05:40;69.07;;;6.93;;
5955;SDS011;3004;48.080;11.600;2022-10-30T05:08:08;68.67;;;6.70;;
5955;SDS011;3004;48.080;11.600;2022-10-30T05:10:37;68.80;;;6.77;;
5955;SDS011;3004;48.080;11.600;2022-10-30T05:13:06;68.40;;;6.60;;
5955;SDS011;3004;48.080;11.600;2022-10-30T05:15:35;68.40;;;6.60;;
5955;SDS011;3004;48.080;11.600;2022-10-30T05:18:04;68.97;;;7.57;;
5955;SDS011;3004;48.080;11.600;2022-10-30T05:20:34;68.67;;;6.73;;
5955;SDS011;3004;48.080;11.600;2022-10-30T05:23:03;68.40;;;6.63;;
5955;SDS011;3004;48.080;11.600;2022-10-30T05:25:30;68.67;;;6.63;;
5955;SDS011;3004;48.080;11.600;2022-10-30T05:27:58;68.70;;;6.60;;
5955;SDS011;3004;48.080;11.600;2022-10-30T05:30:27;72.50;;;9.53;;
5955;SDS011;3004;48.080;11.600;2022-10-30T05:32:57;68.67;;;6.70;;
5955;SDS011;3004;48.080;11.600;2022-10-30T05:35:25;68.27;;;6.50;;
5955;SDS011;3004;48.080;11.600;2022-10-30T05:37:52;68.57;;;6.60;;
5955;SDS011;3004;48.080;11.600;2022-10-30T05:40:19;68.43;;;6.50;;
5955;SDS011;3004;48.080;11.600;2022-10-30T05:42:47;68.43;;;6.60;;
5955;SDS011;3004;48.080;11.600;2022-10-30T05:45:14;68.37;;;6.50;;
5955;SDS011;3004;48.080;11.600;2022-10-30T05:47:43;68.57;;;6.90;;
5955;SDS011;3004;48.080;11.600;2022-10-30T05:50:20;68.77;;;6.87;;
5955;SDS011;3004;48.080;11.600;2022-10-30T05:52:47;68.30;;;6.73;;
5955;SDS011;3004;48.080;11.600;2022-10-30T05:55:14;68.60;;;6.63;;
5955;SDS011;3004;48.080;11.600;2022-10-30T05:57:41;68.67;;;6.70;;
5955;SDS011;3004;48.080;11.600;2022-10-30T06:00:10;68.53;;;6.50;;
5955;SDS011;3004;48.080;11.600;2022-10-30T06:02:38;68.67;;;6.57;;
5955;SDS011;3004;48.080;11.600;2022-10-30T06:05:07;68.23;;;6.60;;
5955;SDS011;3004;48.080;11.600;2022-10-30T06:07:34;68.30;;;6.50;;
5955;SDS011;3004;48.080;11.600;2022-10-30T06:10:01;68.00;;;6.50;;
5955;SDS011;3004;48.080;11.600;2022-10-30T06:12:29;68.40;;;6.50;;
5955;SDS011;3004;48.080;11.600;2022-10-30T06:14:56;68.47;;;6.47;;
5955;SDS011;3004;48.080;11.600;2022-10-30T06:17:23;68.03;;;6.60;;
5955;SDS011;3004;48.080;11.600;2022-10-30T06:19:51;68.57;;;6.90;;
5955;SDS011;3004;48.080;11.600;2022-10-30T06:22:19;68.87;;;7.00;;
5955;SDS011;3004;48.080;11.600;2022-10-30T06:24:46;68.90;;;6.83;;
5955;SDS011;3004;48.080;11.600;2022-10-30T06:27:13;68.90;;;7.37;;
5955;SDS011;3004;48.080;11.600;2022-10-30T06:29:40;68.80;;;6.87;;
5955;SDS011;3004;48.080;11.600;2022-10-30T06:32:08;70.67;;;7.80;;
5955;SDS011;3004;48.080;11.600;2022-10-30T06:34:35;68.80;;;7.00;;
5955;SDS011;3004;48.080;11.600;2022-10-30T06:37:02;68.80;;;6.90;;
5955;SDS011;3004;48.080;11.600;2022-10-30T06:39:31;68.97;;;6.90;;
5955;SDS011;3004;48.080;11.600;2022-10-30T06:41:58;68.97;;;7.00;;
5955;SDS011;3004;48.080;11.600;2022-10-30T06:44:25;75.73;;;7.30;;
5955;SDS011;3004;48.080;11.600;2022-10-30T06:46:52;68.97;;;6.87;;
5955;SDS011;3004;48.080;11.600;2022-10-30T06:49:19;68.70;;;6.77;;
5955;SDS011;3004;48.080;11.600;2022-10-30T06:51:46;68.40;;;6.80;;
5955;SDS011;3004;48.080;11.600;2022-10-30T06:54:14;69.80;;;7.80;;
5955;SDS011;3004;48.080;11.600;2022-10-30T06:56:43;68.73;;;7.10;;
5955;SDS011;3004;48.080;11.600;2022-10-30T06:59:15;70.43;;;8.80;;
5955;SDS011;3004;48.080;11.600;2022-10-30T07:01:42;68.37;;;7.30;;
5955;SDS011;3004;48.080;11.600;2022-10-30T07:04:09;68.57;;;7.80;;
5955;SDS011;3004;48.080;11.600;2022-10-30T07:06:36;68.03;;;7.73;;
5955;SDS011;3004;48.080;11.600;2022-10-30T07:09:03;68.13;;;7.47;;
5955;SDS011;3004;48.080;11.600;2022-10-30T07:11:30;68.27;;;7.73;;
5955;SDS011;3004;48.080;11.600;2022-10-30T07:13:59;69.60;;;8.30;;
5955;SDS011;3004;48.080;11.600;2022-10-30T07:16:26;68.37;;;7.70;;
5955;SDS011;3004;48.080;11.600;2022-10-30T07:18:53;68.57;;;7.57;;
5955;SDS011;3004;48.080;11.600;2022-10-30T07:21:21;68.40;;;7.63;;
5955;SDS011;3004;48.080;11.600;2022-10-30T07:23:48;68.67;;;7.70;;
5955;SDS011;3004;48.080;11.600;2022-10-30T07:26:15;69.03;;;7.57;;
5955;SDS011;3004;48.080;11.600;2022-10-30T07:28:44;69.67;;;8.20;;
5955;SDS011;3004;48.080;11.600;2022-10-30T07:31:14;69.27;;;7.57;;
5955;SDS011;3004;48.080;11.600;2022-10-30T07:33:41;69.07;;;7.63;;
5955;SDS011;3004;48.080;11.600;2022-10-30T07:36:08;69.53;;;7.87;;
5955;SDS011;3004;48.080;11.600;2022-10-30T07:38:36;68.87;;;7.53;;
5955;SDS011;3004;48.080;11.600;2022-10-30T07:41:03;69.60;;;8.13;;
5955;SDS011;3004;48.080;11.600;2022-10-30T07:43:31;69.33;;;7.97;;
5955;SDS011;3004;48.080;11.600;2022-10-30T07:45:58;69.27;;;7.70;;
5955;SDS011;3004;48.080;11.600;2022-10-30T07:48:26;69.03;;;7.70;;
5955;SDS011;3004;48.080;11.600;2022-10-30T07:50:53;69.27;;;7.77;;
5955;SDS011;3004;48.080;11.600;2022-10-30T07:53:22;69.33;;;7.67;;
5955;SDS011;3004;48.080;11.600;2022-10-30T07:55:49;69.30;;;7.77;;
5955;SDS011;3004;48.080;11.600;2022-10-30T07:58:17;72.00;;;9.27;;
5955;SDS011;3004;48.080;11.600;2022-10-30T08:00:44;70.97;;;9.00;;
5955;SDS011;3004;48.080;11.600;2022-10-30T08:03:11;69.30;;;7.60;;
5955;SDS011;3004;48.080;11.600;2022-10-30T08:05:42;69.77;;;7.60;;
5955;SDS011;3004;48.080;11.600;2022-10-30T08:08:11;69.77;;;7.60;;
5955;SDS011;3004;48.080;11.600;2022-10-30T08:10:38;73.87;;;8.73;;
5955;SDS011;3004;48.080;11.600;2022-10-30T08:13:05;69.47;;;7.07;;
5955;SDS011;3004;48.080;11.600;2022-10-30T08:15:32;69.53;;;7.40;;
5955;SDS011;3004;48.080;11.600;2022-10-30T08:17:59;69.30;;;6.80;;
5955;SDS011;3004;48.080;11.600;2022-10-30T08:20:26;69.30;;;6.90;;
5955;SDS011;3004;48.080;11.600;2022-10-30T08:22:55;68.90;;;6.70;;
5955;SDS011;3004;48.080;11.600;2022-10-30T08:25:24;69.90;;;7.07;;
5955;SDS011;3004;48.080;11.600;2022-10-30T08:27:53;67.80;;;5.80;;
5955;SDS011;3004;48.080;11.600;2022-10-30T08:30:21;67.77;;;5.90;;
5955;SDS011;3004;48.080;11.600;2022-10-30T08:32:50;67.50;;;5.40;;
5955;SDS011;3004;48.080;11.600;2022-10-30T08:35:22;67.07;;;5.00;;
5955;SDS011;3004;48.080;11.600;2022-10-30T08:37:50;67.27;;;5.10;;
5955;SDS011;3004;48.080;11.600;2022-10-30T08:40:21;66.57;;;4.40;;
5955;SDS011;3004;48.080;11.600;2022-10-30T08:42:49;66.20;;;4.23;;
5955;SDS011;3004;48.080;11.600;2022-10-30T08:45:16;73.60;;;6.00;;
5955;SDS011;3004;48.080;11.600;2022-10-30T08:47:44;67.87;;;4.87;;
5955;SDS011;3004;48.080;11.600;2022-10-30T08:50:11;66.90;;;4.70;;
5955;SDS011;3004;48.080;11.600;2022-10-30T08:52:38;66.43;;;4.00;;
5955;SDS011;3004;48.080;11.600;2022-10-30T08:55:08;66.20;;;3.90;;
5955;SDS011;3004;48.080;11.600;2022-10-30T08:57:47;66.77;;;4.20;;
5955;SDS011;3004;48.080;11.600;2022-10-30T09:00:15;67.07;;;4.63;;
5955;SDS011;3004;48.080;11.600;2022-10-30T09:02:42;72.30;;;4.57;;
5955;SDS011;3004;48.080;11.600;2022-10-30T09:05:09;66.13;;;3.20;;
5955;SDS011;3004;48.080;11.600;2022-10-30T09:07:36;66.07;;;3.80;;
5955;SDS011;3004;48.080;11.600;2022-10-30T09:10:04;68.37;;;4.77;;
5955;SDS011;3004;48.080;11.600;2022-10-30T09:12:36;65.17;;;2.80;;
5955;SDS011;3004;48.080;11.600;2022-10-30T09:15:03;65.47;;;3.27;;
5955;SDS011;3004;48.080;11.600;2022-10-30T09:17:30;67.47;;;4.17;;
5955;SDS011;3004;48.080;11.600;2022-10-30T09:19:58;65.47;;;2.80;;
5955;SDS011;3004;48.080;11.600;2022-10-30T09:22:25;65.77;;;3.10;;
5955;SDS011;3004;48.080;11.600;2022-10-30T09:24:52;65.93;;;3.00;;
5955;SDS011;3004;48.080;11.600;2022-10-30T09:27:19;65.83;;;2.80;;
5955;SDS011;3004;48.080;11.600;2022-10-30T09:29:47;65.67;;;2.90;;
5955;SDS011;3004;48.080;11.600;2022-10-30T09:32:15;65.40;;;2.40;;
5955;SDS011;3004;48.080;11.600;2022-10-30T09:34:42;65.37;;;2.03;;
5955;SDS011;3004;48.080;11.600;2022-10-30T13:33:37;95.23;;;2.27;;
5955;SDS011;3004;48.080;11.600;2022-10-30T13:39:37;67.70;;;1.80;;
5955;SDS011;3004;48.080;11.600;2022-10-30T13:42:15;66.67;;;1.10;;
5955;SDS011;3004;48.080;11.600;2022-10-30T13:44:55;71.50;;;3.63;;
5955;SDS011;3004;48.080;11.600;2022-10-30T13:47:32;66.33;;;1.00;;
5955;SDS011;3004;48.080;11.600;2022-10-30T13:53:09;66.57;;;1.40;;
5955;SDS011;3004;48.080;11.600;2022-10-30T13:55:40;66.27;;;1.00;;
5955;SDS011;3004;48.080;11.600;2022-10-30T13:58:11;72.10;;;2.43;;
5955;SDS011;3004;48.080;11.600;2022-10-30T14:00:49;66.50;;;1.20;;
5955;SDS011;3004;48.080;11.600;2022-10-30T14:03:27;67.47;;;2.00;;
5955;SDS011;3004;48.080;11.600;2022-10-30T14:06:12;67.40;;;1.93;;
5955;SDS011;3004;48.080;11.600;2022-10-30T14:08:51;68.87;;;2.37;;
5955;SDS011;3004;48.080;11.600;2022-10-30T14:11:29;69.57;;;2.07;;
5955;SDS011;3004;48.080;11.600;2022-10-30T14:13:56;81.53;;;4.10;;
5955;SDS011;3004;48.080;11.600;2022-10-30T14:16:31;66.40;;;1.23;;
5955;SDS011;3004;48.080;11.600;2022-10-30T14:19:08;67.30;;;1.70;;
5955;SDS011;3004;48.080;11.600;2022-10-30T14:21:52;69.70;;;1.63;;
5955;SDS011;3004;48.080;11.600;2022-10-30T14:24:21;68.40;;;2.63;;
5955;SDS011;3004;48.080;11.600;2022-10-30T14:26:50;66.57;;;1.30;;
5955;SDS011;3004;48.080;11.600;2022-10-30T14:29:37;66.27;;;1.10;;
5955;SDS011;3004;48.080;11.600;2022-10-30T14:34:59;66.20;;;1.10;;
5955;SDS011;3004;48.080;11.600;2022-10-30T14:40:33;68.27;;;2.20;;
5955;SDS011;3004;48.080;11.600;2022-10-30T14:43:07;66.63;;;1.57;;
5955;SDS011;3004;48.080;11.600;2022-10-30T14:45:58;67.40;;;2.03;;
5955;SDS011;3004;48.080;11.600;2022-10-30T14:48:27;68.37;;;2.67;;
5955;SDS011;3004;48.080;11.600;2022-10-30T14:51:04;67.30;;;1.60;;
5955;SDS011;3004;48.080;11.600;2022-10-30T14:53:45;66.13;;;1.00;;
5955;SDS011;3004;48.080;11.600;2022-10-30T14:56:27;67.37;;;2.30;;
5955;SDS011;3004;48.080;11.600;2022-10-30T14:59:18;66.40;;;1.60;;
5955;SDS011;3004;48.080;11.600;2022-10-30T15:01:50;66.87;;;1.70;;
5955;SDS011;3004;48.080;11.600;2022-10-30T15:04:22;66.67;;;1.30;;
5955;SDS011;3004;48.080;11.600;2022-10-30T15:07:00;66.50;;;1.33;;
5955;SDS011;3004;48.080;11.600;2022-10-30T15:09:45;66.90;;;1.70;;
5955;SDS011;3004;48.080;11.600;2022-10-30T15:15:15;66.57;;;1.40;;
5955;SDS011;3004;48.080;11.600;2022-10-30T15:17:44;69.10;;;1.87;;
5955;SDS011;3004;48.080;11.600;2022-10-30T15:20:14;66.23;;;1.40;;
5955;SDS011;3004;48.080;11.600;2022-10-30T15:22:44;66.77;;;2.33;;
5955;SDS011;3004;48.080;11.600;2022-10-30T15:25:17;66.80;;;1.60;;
5955;SDS011;3004;48.080;11.600;2022-10-30T15:27:47;66.43;;;1.63;;
5955;SDS011;3004;48.080;11.600;2022-10-30T15:30:17;76.33;;;3.37;;
5955;SDS011;3004;48.080;11.600;2022-10-30T15:32:45;65.87;;;1.30;;
5955;SDS011;3004;48.080;11.600;2022-10-30T15:35:14;80.10;;;3.03;;
5955;SDS011;3004;48.080;11.600;2022-10-30T15:38:02;65.77;;;1.20;;
5955;SDS011;3004;48.080;11.600;2022-10-30T15:40:33;65.40;;;1.40;;
5955;SDS011;3004;48.080;11.600;2022-10-30T15:43:04;67.17;;;1.77;;
5955;SDS011;3004;48.080;11.600;2022-10-30T15:45:34;66.07;;;1.30;;
5955;SDS011;3004;48.080;11.600;2022-10-30T15:48:04;68.70;;;2.37;;
5955;SDS011;3004;48.080;11.600;2022-10-30T15:50:33;65.90;;;1.40;;
5955;SDS011;3004;48.080;11.600;2022-10-30T15:53:03;66.37;;;1.80;;
5955;SDS011;3004;48.080;11.600;2022-10-30T15:55:30;82.27;;;2.33;;
5955;SDS011;3004;48.080;11.600;2022-10-30T15:58:00;69.03;;;2.53;;
5955;SDS011;3004;48.080;11.600;2022-10-30T16:00:30;68.30;;;2.93;;
5955;SDS011;3004;48.080;11.600;2022-10-30T16:03:00;65.97;;;1.97;;
5955;SDS011;3004;48.080;11.600;2022-10-30T16:05:29;65.80;;;1.70;;
5955;SDS011;3004;48.080;11.600;2022-10-30T16:07:57;74.10;;;3.60;;
5955;SDS011;3004;48.080;11.600;2022-10-30T16:10:26;66.40;;;2.43;;
5955;SDS011;3004;48.080;11.600;2022-10-30T16:13:02;66.23;;;2.40;;
5955;SDS011;3004;48.080;11.600;2022-10-30T16:15:30;94.53;;;3.90;;
5955;SDS011;3004;48.080;11.600;2022-10-30T16:18:05;67.30;;;2.63;;
5955;SDS011;3004;48.080;11.600;2022-10-30T16:20:40;66.47;;;3.20;;
5955;SDS011;3004;48.080;11.600;2022-10-30T16:23:09;67.17;;;2.73;;
5955;SDS011;3004;48.080;11.600;2022-10-30T16:25:38;66.27;;;2.40;;
5955;SDS011;3004;48.080;11.600;2022-10-30T16:30:56;69.03;;;3.83;;
5955;SDS011;3004;48.080;11.600;2022-10-30T16:33:25;110.13;;;5.43;;
5955;SDS011;3004;48.080;11.600;2022-10-30T16:35:54;68.17;;;4.17;;
5955;SDS011;3004;48.080;11.600;2022-10-30T16:38:25;70.07;;;4.00;;
5955;SDS011;3004;48.080;11.600;2022-10-30T16:40:55;70.20;;;2.97;;
5955;SDS011;3004;48.080;11.600;2022-10-30T16:43:25;65.77;;;2.30;;
5955;SDS011;3004;48.080;11.600;2022-10-30T16:45:54;68.60;;;4.03;;
5955;SDS011;3004;48.080;11.600;2022-10-30T16:48:31;74.10;;;3.00;;
5955;SDS011;3004;48.080;11.600;2022-10-30T16:51:01;66.80;;;3.13;;
5955;SDS011;3004;48.080;11.600;2022-10-30T16:53:31;66.07;;;2.50;;
5955;SDS011;3004;48.080;11.600;2022-10-30T16:55:58;69.73;;;4.00;;
5955;SDS011;3004;48.080;11.600;2022-10-30T16:58:28;66.57;;;3.50;;
5955;SDS011;3004;48.080;11.600;2022-10-30T17:01:00;68.00;;;3.90;;
5955;SDS011;3004;48.080;11.600;2022-10-30T17:03:35;66.37;;;2.90;;
5955;SDS011;3004;48.080;11.600;2022-10-30T17:06:06;68.30;;;2.93;;
5955;SDS011;3004;48.080;11.600;2022-10-30T17:08:51;73.40;;;3.10;;
5955;SDS011;3004;48.080;11.600;2022-10-30T17:11:20;66.43;;;3.07;;
5955;SDS011;3004;48.080;11.600;2022-10-30T17:14:01;66.47;;;3.50;;
5955;SDS011;3004;48.080;11.600;2022-10-30T17:16:32;65.97;;;3.00;;
5955;SDS011;3004;48.080;11.600;2022-10-30T17:22:06;65.97;;;3.03;;
5955;SDS011;3004;48.080;11.600;2022-10-30T17:24:39;66.30;;;3.00;;
5955;SDS011;3004;48.080;11.600;2022-10-30T17:30:29;68.37;;;3.73;;
5955;SDS011;3004;48.080;11.600;2022-10-30T17:33:02;67.63;;;4.03;;
5955;SDS011;3004;48.080;11.600;2022-10-30T17:35:49;66.73;;;3.40;;
5955;SDS011;3004;48.080;11.600;2022-10-30T17:38:17;66.63;;;3.30;;
5955;SDS011;3004;48.080;11.600;2022-10-30T17:40:44;66.77;;;3.37;;
5955;SDS011;3004;48.080;11.600;2022-10-30T17:43:11;66.33;;;3.20;;
5955;SDS011;3004;48.080;11.600;2022-10-30T17:45:41;67.10;;;3.90;;
5955;SDS011;3004;48.080;11.600;2022-10-30T17:48:09;77.33;;;5.83;;
5955;SDS011;3004;48.080;11.600;2022-10-30T17:50:39;66.93;;;3.50;;
5955;SDS011;3004;48.080;11.600;2022-10-30T17:53:09;66.80;;;3.40;;
5955;SDS011;3004;48.080;11.600;2022-10-30T17:55:42;77.43;;;4.30;;
5955;SDS011;3004;48.080;11.600;2022-10-30T17:58:11;66.87;;;3.50;;
5955;SDS011;3004;48.080;11.600;2022-10-30T18:00:38;66.30;;;3.30;;
5955;SDS011;3004;48.080;11.600;2022-10-30T18:03:07;66.73;;;3.60;;
5955;SDS011;3004;48.080;11.600;2022-10-30T18:05:34;66.77;;;3.50;;
5955;SDS011;3004;48.080;11.600;2022-10-30T18:08:02;66.97;;;3.80;;
5955;SDS011;3004;48.080;11.600;2022-10-30T18:10:29;67.67;;;4.00;;
5955;SDS011;3004;48.080;11.600;2022-10-30T18:12:58;66.30;;;3.53;;
5955;SDS011;3004;48.080;11.600;2022-10-30T18:15:26;68.00;;;4.17;;
5955;SDS011;3004;48.080;11.600;2022-10-30T18:17:55;67.57;;;3.67;;
5955;SDS011;3004;48.080;11.600;2022-10-30T18:20:25;75.27;;;4.37;;
5955;SDS011;3004;48.080;11.600;2022-10-30T18:22:52;68.00;;;4.30;;
5955;SDS011;3004;48.080;11.600;2022-10-30T18:25:21;67.17;;;3.90;;
5955;SDS011;3004;48.080;11.600;2022-10-30T18:27:50;75.10;;;5.63;;
5955;SDS011;3004;48.080;11.600;2022-10-30T18:30:17;68.50;;;4.63;;
5955;SDS011;3004;48.080;11.600;2022-10-30T18:32:45;67.37;;;3.90;;
5955;SDS011;3004;48.080;11.600;2022-10-30T18:35:14;80.93;;;4.20;;
5955;SDS011;3004;48.080;11.600;2022-10-30T18:37:47;88.70;;;5.23;;
5955;SDS011;3004;48.080;11.600;2022-10-30T18:40:15;67.37;;;4.20;;
5955;SDS011;3004;48.080;11.600;2022-10-30T18:42:44;68.30;;;4.43;;
5955;SDS011;3004;48.080;11.600;2022-10-30T18:45:14;67.40;;;4.10;;
5955;SDS011;3004;48.080;11.600;2022-10-30T18:47:44;67.90;;;4.53;;
5955;SDS011;3004;48.080;11.600;2022-10-30T18:50:11;67.83;;;4.20;;
5955;SDS011;3004;48.080;11.600;2022-10-30T18:52:38;68.03;;;4.50;;
5955;SDS011;3004;48.080;11.600;2022-10-30T18:55:28;70.07;;;4.40;;
5955;SDS011;3004;48.080;11.600;2022-10-30T18:58:01;67.63;;;4.10;;
5955;SDS011;3004;48.080;11.600;2022-10-30T19:00:28;69.57;;;5.33;;
5955;SDS011;3004;48.080;11.600;2022-10-30T19:02:56;68.10;;;4.50;;
5955;SDS011;3004;48.080;11.600;2022-10-30T19:05:26;71.57;;;5.43;;
5955;SDS011;3004;48.080;11.600;2022-10-30T19:07:56;67.27;;;4.10;;
5955;SDS011;3004;48.080;11.600;2022-10-30T19:10:32;67.47;;;4.27;;
5955;SDS011;3004;48.080;11.600;2022-10-30T19:13:01;68.80;;;4.93;;
5955;SDS011;3004;48.080;11.600;2022-10-30T19:15:33;66.97;;;4.00;;
5955;SDS011;3004;48.080;11.600;2022-10-30T19:18:03;67.80;;;4.83;;
5955;SDS011;3004;48.080;11.600;2022-10-30T19:20:32;66.50;;;3.80;;
5955;SDS011;3004;48.080;11.600;2022-10-30T19:23:00;67.80;;;4.67;;
5955;SDS011;3004;48.080;11.600;2022-10-30T19:25:30;99.63;;;4.83;;
5955;SDS011;3004;48.080;11.600;2022-10-30T19:28:04;78.80;;;5.70;;